Tuesday, July 28, 2015, 9:28 AM EDT

KPHF, Williamsburg International Airport

Location: Newport News, VA, United States Lat: 37.133
Local Time: 9:28 AM EDT (13:28 GMT) Lon: -76.5
Time Zone: US/Eastern Elev: 42 ft

Show me the last for .
Show Decoded

2015-07-28 08:54 METAR KPHF 281254Z 21004KT 10SM SCT049 OVC060 26/23 A3002 RMK AO2 RAB47E52
                 SLP165 P0000 T02610228 =
2015-07-28 07:54 METAR KPHF 281154Z 22005KT 10SM BKN050 OVC070 25/22 A3002 RMK AO2 SLP166 60000
                 70002 T02500222 10256 20244 53007 =
2015-07-28 06:54 METAR KPHF 281054Z 23004KT 10SM FEW050 BKN065 OVC085 25/22 A3002 RMK AO2 SLP163
                 T02500217 =
2015-07-28 05:54 METAR KPHF 280954Z 20003KT 10SM FEW048 BKN060 OVC085 24/22 A3001 RMK AO2
                 RAB52E53 SLP160 P0000 T02440222 =
2015-07-28 04:54 METAR KPHF 280854Z 24006KT 10SM BKN060 OVC095 25/22 A3000 =
2015-07-28 03:54 METAR KPHF 280754Z 23004KT 10SM FEW060 BKN085 BKN110 25/22 A3000 RMK AO2 SLP159
                 T02500217 =
2015-07-28 02:54 METAR KPHF 280654Z 21006KT 10SM CLR 24/22 A3001 RMK AO2 SLP161 T02440217 =
2015-07-28 01:54 METAR KPHF 280554Z 21007KT 10SM FEW085 25/22 A3002 =
2015-07-28 00:54 METAR KPHF 280454Z 20007KT 10SM FEW065 26/22 A3002 RMK AO2 SLP165 T02560222
                 403110239 =
2015-07-27 23:54 METAR KPHF 280354Z 20006KT 10SM FEW075 26/22 A3002 RMK AO2 SLP164 T02610217 =
2015-07-27 22:54 METAR KPHF 280254Z 18005KT 10SM FEW060 27/22 A3002 RMK AO2 SLP163 T02670217
                 51012 =
2015-07-27 21:54 METAR KPHF 280154Z 17005KT 10SM CLR 27/22 A3001 RMK AO2 SLP161 T02720217 =
2015-07-27 20:54 METAR KPHF 280054Z 20008KT 10SM CLR 28/21 A2999 =
2015-07-27 19:54 METAR KPHF 272354Z AUTO 19010KT 10SM FEW039 FEW047 SCT070 28/21 A2998 RMK AO2
                 SLP151 T02830211 10311 20283 53003 =
2015-07-27 18:54 METAR KPHF 272254Z AUTO 19007KT 10SM SCT070 BKN090 BKN110 30/21 A2997 RMK AO2
                 SLP147 T03000206 =
2015-07-27 17:54 METAR KPHF 272154Z AUTO VRB05KT 10SM FEW044 SCT075 30/20 A2997 =
2015-07-27 16:54 METAR KPHF 272054Z 21010KT 10SM FEW060 31/20 A2997 RMK AO2 SLP148 T03060200
                 56015 =
2015-07-27 15:54 METAR KPHF 271954Z 19007KT 10SM FEW039 31/21 A2999 RMK AO2 SLP153 T03060206 =
2015-07-27 14:54 METAR KPHF 271854Z 20010KT 170V240 10SM CLR 31/21 A3000 RMK AO2 SLP157 T03060211
                 =
2015-07-27 13:54 METAR KPHF 271754Z 19007KT 10SM CLR 29/21 A3002 RMK AO2 RAE04 SLP163 P0000 60002
                 T02890211 10294 20239 58010 =
2015-07-27 12:54 METAR KPHF 271654Z 19008KT 10SM -RA FEW020 FEW100 28/23 A3003 RMK AO2 SLP168
                 P0000 T02780228 =
2015-07-27 12:39 METAR KPHF 271639Z 18006KT 10SM -RA SCT030 BKN100 27/23 A3003 RMK AO2 P0000
                 T02720228 =
2015-07-27 12:30 METAR KPHF 271630Z 20006KT 10SM -RA BKN027 BKN044 BKN110 27/23 A3003 RMK AO2
                 P0000 T02670228 =
2015-07-27 11:54 METAR KPHF 271554Z 17006KT 10SM -RA BKN120 26/23 A3004 RMK AO2 SLP173 P0000
                 T02610228 =
2015-07-27 10:54 METAR KPHF 271454Z 11003KT 10SM -RA FEW022 SCT080 OVC110 25/23 A3005 =
2015-07-27 09:54 METAR KPHF 271354Z 04003KT 9SM -RA FEW070 SCT085 BKN120 24/23 A3006 =

Support USWX by starting your Amazon purchase here.